createdAt,value
2023-01-20T05:33:05.478Z,10.13
2023-01-20T05:37:08.617Z,9.30
2023-01-20T05:41:11.586Z,9.47
2023-01-20T05:45:14.884Z,7.60
2023-01-20T05:49:17.741Z,8.82
2023-01-20T05:53:20.907Z,8.65
2023-01-20T05:57:26.712Z,8.80
2023-01-20T06:01:29.735Z,8.95
2023-01-20T06:05:32.866Z,9.23
2023-01-20T06:09:35.842Z,8.47
2023-01-20T06:13:41.209Z,8.85
2023-01-20T06:17:46.684Z,7.80
2023-01-20T06:21:49.754Z,9.00
2023-01-20T06:26:06.879Z,8.50
2023-01-20T06:30:11.021Z,8.73
2023-01-20T06:34:14.017Z,8.82
2023-01-20T06:38:18.058Z,8.23
2023-01-20T06:42:31.797Z,9.48
2023-01-20T06:46:58.745Z,8.98
2023-01-20T06:51:03.376Z,9.40
2023-01-20T06:55:07.668Z,8.40
2023-01-20T06:59:13.417Z,8.70
2023-01-20T07:03:17.875Z,8.73
2023-01-20T07:07:21.351Z,8.45
2023-01-20T07:11:25.334Z,8.48
2023-01-20T07:15:28.218Z,8.13
2023-01-20T07:19:34.475Z,8.67
2023-01-20T07:23:39.896Z,8.65
2023-01-20T07:27:59.476Z,8.63
2023-01-20T07:32:02.503Z,8.97
2023-01-20T07:36:07.585Z,9.75
2023-01-20T07:40:15.656Z,9.40
2023-01-20T07:44:25.310Z,9.30
2023-01-20T07:48:32.033Z,8.95
2023-01-20T07:52:39.744Z,8.20
2023-01-20T07:56:42.775Z,8.70
2023-01-20T08:00:48.894Z,8.17
2023-01-20T08:04:52.244Z,8.13
2023-01-20T08:08:58.466Z,9.00
2023-01-20T08:13:02.283Z,8.87
2023-01-20T08:17:05.004Z,8.32
2023-01-20T08:21:16.419Z,7.60
2023-01-20T08:25:19.072Z,7.80
2023-01-20T08:29:22.715Z,8.35
2023-01-20T08:33:26.575Z,8.45
2023-01-20T08:37:29.553Z,8.98
2023-01-20T08:41:37.623Z,7.73
2023-01-20T08:46:03.196Z,7.55
2023-01-20T08:50:07.184Z,7.72
2023-01-20T08:54:10.674Z,8.67
2023-01-20T08:58:13.366Z,8.77
2023-01-20T09:02:22.166Z,9.30
2023-01-20T09:06:24.962Z,7.83
2023-01-20T09:10:38.515Z,7.70
2023-01-20T09:14:45.090Z,9.25
2023-01-20T09:18:51.656Z,9.95
2023-01-20T09:22:57.783Z,9.53
2023-01-20T09:27:05.185Z,9.25
2023-01-20T09:31:10.051Z,9.05
2023-01-20T09:35:16.120Z,8.87
2023-01-20T09:39:43.129Z,7.90
2023-01-20T09:43:55.508Z,8.00
2023-01-20T09:48:41.489Z,7.23
2023-01-20T09:53:02.951Z,7.18
2023-01-20T09:57:07.436Z,8.02
2023-01-20T10:01:18.893Z,9.02
2023-01-20T10:05:30.755Z,10.00
2023-01-20T10:10:03.104Z,10.13
2023-01-20T10:14:35.705Z,11.43
2023-01-20T10:18:48.419Z,11.43
2023-01-20T10:22:56.083Z,12.37
2023-01-20T10:27:04.963Z,9.27
2023-01-20T10:31:24.228Z,9.70
2023-01-20T10:35:28.855Z,9.43
2023-01-20T10:39:39.512Z,8.77
2023-01-20T10:43:43.067Z,10.27
2023-01-20T10:48:07.597Z,9.50
2023-01-20T10:52:13.485Z,11.82
2023-01-20T10:56:32.744Z,13.40
2023-01-20T11:00:39.893Z,9.40
2023-01-20T11:04:53.105Z,8.98
2023-01-20T11:08:56.985Z,11.98
2023-01-20T11:13:02.638Z,9.17
2023-01-20T11:17:07.304Z,8.90
2023-01-20T11:21:13.342Z,9.13
2023-01-20T11:25:27.392Z,13.35
2023-01-20T11:29:31.711Z,9.17
2023-01-20T11:33:34.559Z,9.82
2023-01-20T11:37:40.590Z,8.02
2023-01-20T11:41:43.734Z,9.73
2023-01-20T11:45:47.712Z,8.32
2023-01-20T11:50:09.357Z,7.85
2023-01-20T11:54:16.384Z,6.37
2023-01-20T11:58:25.802Z,6.45
2023-01-20T12:02:28.971Z,6.43
2023-01-20T12:07:00.117Z,5.22
2023-01-20T12:11:05.518Z,5.07
2023-01-20T12:15:25.728Z,6.05
2023-01-20T12:20:00.018Z,5.00
2023-01-20T12:24:42.429Z,8.63
2023-01-20T12:28:54.879Z,7.40
2023-01-20T12:32:58.702Z,7.87
2023-01-20T12:37:04.258Z,8.20
2023-01-20T12:41:13.837Z,10.20
2023-01-20T12:45:34.955Z,7.85
2023-01-20T12:49:48.732Z,9.43
2023-01-20T12:54:20.050Z,8.30
2023-01-20T12:58:36.013Z,9.27
2023-01-20T13:03:16.569Z,9.57
2023-01-20T13:07:30.269Z,8.67
2023-01-20T13:11:32.899Z,7.93
2023-01-20T13:15:42.030Z,7.82
2023-01-20T13:19:49.617Z,9.07
2023-01-20T13:23:52.903Z,8.20
2023-01-20T13:27:55.955Z,8.70
2023-01-20T13:31:59.108Z,8.93
2023-01-20T13:36:18.852Z,9.73
2023-01-20T13:40:37.091Z,8.90
2023-01-20T13:44:42.427Z,8.90
2023-01-20T13:49:24.517Z,8.60
2023-01-20T13:53:28.551Z,10.10
2023-01-20T13:57:43.833Z,7.85
2023-01-20T14:01:48.847Z,8.40
2023-01-20T14:06:03.371Z,8.38
2023-01-20T14:10:11.879Z,8.27
2023-01-20T14:14:19.374Z,9.07
2023-01-20T14:18:23.990Z,7.97
2023-01-20T14:22:30.026Z,8.15
2023-01-20T14:26:33.425Z,10.13
2023-01-20T14:30:36.629Z,8.07
2023-01-20T14:34:40.522Z,7.35
2023-01-20T14:38:56.439Z,8.75
2023-01-20T14:43:02.238Z,8.60
2023-01-20T14:47:05.400Z,8.05
2023-01-20T14:51:08.352Z,7.50
2023-01-20T14:55:31.886Z,9.00
2023-01-20T14:59:34.606Z,12.50
2023-01-20T15:03:37.665Z,15.13
2023-01-20T15:07:40.270Z,17.30
2023-01-20T15:11:43.385Z,14.57
2023-01-20T15:15:46.020Z,14.63
2023-01-20T15:19:49.041Z,11.70
2023-01-20T15:23:52.930Z,17.97
2023-01-20T15:27:57.289Z,31.08
2023-01-20T15:32:02.488Z,19.37
2023-01-20T15:36:37.192Z,20.90
2023-01-20T15:40:40.906Z,19.87
2023-01-20T15:44:43.880Z,21.75
2023-01-20T15:48:46.568Z,22.65
2023-01-20T15:52:49.744Z,17.87
2023-01-20T15:56:52.411Z,13.95
2023-01-20T16:00:56.702Z,22.52
2023-01-20T16:04:59.624Z,22.23
2023-01-20T16:09:11.105Z,19.35
2023-01-20T16:13:14.747Z,14.60
2023-01-20T16:17:21.159Z,17.00
2023-01-20T16:21:24.218Z,17.13
